Time;durP1;ratioP1;P1;durP2;ratioP2;P2;SDS_P1;SDS_P2;PMS_P1;PMS_P2;Temp;Humidity;BMP_temperature;BMP_pressure;BME280_temperature;BME280_humidity;BME280_pressure;Samples;Min_cycle;Max_cycle;Signal;HPM_P1;HPM_P2
2022/01/08 00:00:38;;;;;;;8.85;3.38;;;;;;;;;;5141760;28;20060;-57
2022/01/08 00:03:04;;;;;;;15.93;4.50;;;;;;;;;;5133835;28;20043;-55
2022/01/08 00:05:31;;;;;;;11.23;3.33;;;;;;;;;;5131729;28;20107;-56
2022/01/08 00:07:57;;;;;;;11.05;2.85;;;;;;;;;;5138847;28;20550;-56
2022/01/08 00:10:23;;;;;;;6.07;2.67;;;;;;;;;;5144766;28;20054;-57
2022/01/08 00:12:50;;;;;;;10.88;3.00;;;;;;;;;;5145018;28;20045;-57
2022/01/08 00:15:17;;;;;;;10.15;3.25;;;;;;;;;;5144009;28;20054;-58
2022/01/08 00:17:43;;;;;;;8.43;3.40;;;;;;;;;;5139412;28;20068;-55
2022/01/08 00:20:10;;;;;;;5.90;2.72;;;;;;;;;;5142822;28;20490;-56
2022/01/08 00:22:36;;;;;;;10.20;3.80;;;;;;;;;;5144212;28;20047;-56
2022/01/08 00:25:03;;;;;;;7.40;2.70;;;;;;;;;;5143251;28;20059;-56
2022/01/08 00:27:29;;;;;;;6.20;2.42;;;;;;;;;;5144569;28;20089;-56
2022/01/08 00:29:55;;;;;;;8.65;2.80;;;;;;;;;;5135614;28;20127;-57
2022/01/08 00:32:21;;;;;;;7.47;2.88;;;;;;;;;;5141683;28;20054;-57
2022/01/08 00:34:47;;;;;;;5.78;2.33;;;;;;;;;;5143358;28;20039;-57
2022/01/08 00:37:13;;;;;;;7.40;2.40;;;;;;;;;;5143517;28;20035;-57
2022/01/08 00:39:40;;;;;;;10.93;2.75;;;;;;;;;;5143900;27;20051;-58
2022/01/08 00:42:06;;;;;;;9.60;2.95;;;;;;;;;;5148179;27;20465;-57
2022/01/08 00:44:32;;;;;;;5.85;2.30;;;;;;;;;;5143985;27;20035;-58
2022/01/08 00:46:58;;;;;;;8.63;2.72;;;;;;;;;;5145371;27;20612;-57
2022/01/08 00:49:25;;;;;;;3.22;1.98;;;;;;;;;;5146764;27;20043;-57
2022/01/08 00:51:51;;;;;;;8.85;2.47;;;;;;;;;;5146246;27;20505;-55
2022/01/08 00:54:18;;;;;;;10.45;2.83;;;;;;;;;;5147493;27;20050;-58
2022/01/08 00:56:44;;;;;;;8.90;2.70;;;;;;;;;;5148398;27;20076;-57
2022/01/08 00:59:10;;;;;;;4.65;2.60;;;;;;;;;;5147990;27;20419;-59
2022/01/08 01:01:36;;;;;;;9.35;2.83;;;;;;;;;;5147790;27;20058;-57
2022/01/08 01:04:02;;;;;;;6.97;3.35;;;;;;;;;;5147652;27;20482;-56
2022/01/08 01:06:28;;;;;;;8.02;3.58;;;;;;;;;;5146567;27;20056;-57
2022/01/08 01:08:55;;;;;;;7.32;3.67;;;;;;;;;;5147394;27;20051;-58
2022/01/08 01:11:21;;;;;;;4.80;2.85;;;;;;;;;;5147976;27;20047;-56
2022/01/08 01:13:47;;;;;;;7.22;3.10;;;;;;;;;;5147725;27;20131;-57
2022/01/08 01:16:13;;;;;;;8.40;3.67;;;;;;;;;;5147391;27;20078;-58
2022/01/08 01:18:39;;;;;;;13.55;3.83;;;;;;;;;;5147586;27;20054;-57
2022/01/08 01:21:05;;;;;;;16.35;3.55;;;;;;;;;;5147115;27;20046;-57
2022/01/08 01:23:37;;;;;;;6.78;3.35;;;;;;;;;;5147186;27;20051;-58
2022/01/08 01:26:07;;;;;;;11.80;3.85;;;;;;;;;;5147389;27;20070;-56
2022/01/08 01:28:49;;;;;;;10.63;3.92;;;;;;;;;;5147423;27;20548;-57
2022/01/08 01:47:02;;;;;;;8.43;4.18;;;;;;;;;;5147031;27;20116;-58
2022/01/08 01:49:29;;;;;;;7.22;4.00;;;;;;;;;;5147019;27;20456;-57
2022/01/08 01:51:55;;;;;;;10.27;4.75;;;;;;;;;;5145260;27;20071;-57
2022/01/08 01:54:21;;;;;;;12.52;5.15;;;;;;;;;;5146743;27;20507;-57
2022/01/08 01:56:48;;;;;;;10.60;4.78;;;;;;;;;;5146387;27;20415;-57
2022/01/08 01:59:14;;;;;;;11.13;4.75;;;;;;;;;;5147273;27;20091;-57
2022/01/08 02:01:40;;;;;;;10.63;4.95;;;;;;;;;;5147003;27;20046;-56
2022/01/08 02:04:06;;;;;;;10.88;4.75;;;;;;;;;;5146656;27;20043;-56
2022/01/08 02:06:32;;;;;;;10.02;5.15;;;;;;;;;;5146009;27;20125;-57
2022/01/08 02:08:59;;;;;;;7.78;3.97;;;;;;;;;;5146565;27;20410;-57
2022/01/08 02:11:25;;;;;;;10.05;4.75;;;;;;;;;;5146621;27;20051;-57
2022/01/08 02:13:51;;;;;;;12.07;4.03;;;;;;;;;;5146673;27;20091;-59
2022/01/08 02:16:17;;;;;;;11.40;4.93;;;;;;;;;;5146385;27;20043;-57
2022/01/08 02:18:45;;;;;;;6.40;4.00;;;;;;;;;;5146290;27;20537;-58
2022/01/08 02:21:12;;;;;;;;;;;;;;;;;;5146361;27;20043;-58
2022/01/08 02:23:38;;;;;;;15.65;5.07;;;;;;;;;;5146304;27;19919;-57
2022/01/08 02:26:09;;;;;;;13.15;4.18;;;;;;;;;;5145885;27;20051;-57
2022/01/08 02:28:38;;;;;;;9.55;4.15;;;;;;;;;;5145867;27;20065;-57
2022/01/08 02:31:05;;;;;;;11.20;4.80;;;;;;;;;;5146473;27;20051;-57
2022/01/08 02:33:31;;;;;;;10.02;3.90;;;;;;;;;;5145810;27;20051;-57
2022/01/08 02:35:58;;;;;;;6.32;3.70;;;;;;;;;;5145661;27;20560;-57
2022/01/08 02:38:24;;;;;;;9.75;3.65;;;;;;;;;;5145854;27;20410;-57
2022/01/08 02:40:56;;;;;;;13.07;4.00;;;;;;;;;;5146008;27;20043;-58
2022/01/08 02:43:23;;;;;;;8.60;3.42;;;;;;;;;;5145915;27;20057;-58
2022/01/08 02:45:49;;;;;;;6.28;3.45;;;;;;;;;;5146245;27;20054;-57
2022/01/08 02:48:16;;;;;;;9.32;3.53;;;;;;;;;;5146008;27;20081;-57
2022/01/08 02:50:42;;;;;;;9.57;3.10;;;;;;;;;;5145221;27;20035;-57
2022/01/08 02:53:08;;;;;;;6.78;3.08;;;;;;;;;;5127079;27;20053;-57
2022/01/08 02:55:36;;;;;;;8.27;3.40;;;;;;;;;;5145858;27;20070;-58
2022/01/08 02:58:03;;;;;;;8.90;2.70;;;;;;;;;;5145964;27;20043;-57
2022/01/08 03:00:29;;;;;;;5.68;2.63;;;;;;;;;;5145647;27;20135;-57
2022/01/08 03:02:55;;;;;;;5.97;2.72;;;;;;;;;;5145204;27;20360;-57
2022/01/08 03:05:21;;;;;;;7.10;2.80;;;;;;;;;;5145183;27;20043;-57
2022/01/08 03:07:49;;;;;;;6.25;2.58;;;;;;;;;;5145776;27;20047;-57
2022/01/08 03:10:16;;;;;;;6.35;3.25;;;;;;;;;;5145011;27;20043;-57
2022/01/08 03:12:43;;;;;;;7.50;2.60;;;;;;;;;;5145580;27;20039;-58
2022/01/08 03:15:13;;;;;;;8.52;2.95;;;;;;;;;;5145556;27;20094;-58
2022/01/08 03:17:40;;;;;;;7.15;2.58;;;;;;;;;;5145475;27;20108;-58
2022/01/08 03:20:10;;;;;;;4.95;3.30;;;;;;;;;;5144619;27;20065;-56
2022/01/08 03:22:36;;;;;;;11.00;3.28;;;;;;;;;;5145375;27;20046;-58
2022/01/08 03:25:02;;;;;;;10.57;2.53;;;;;;;;;;5144956;27;20122;-57
2022/01/08 03:27:29;;;;;;;7.00;2.42;;;;;;;;;;5145391;28;20043;-57
2022/01/08 03:29:55;;;;;;;5.45;2.70;;;;;;;;;;5145327;28;20050;-57
2022/01/08 03:32:21;;;;;;;6.68;3.22;;;;;;;;;;5145050;28;20038;-56
2022/01/08 03:34:47;;;;;;;8.48;2.55;;;;;;;;;;5145427;28;20051;-56
2022/01/08 03:37:14;;;;;;;13.45;2.72;;;;;;;;;;5144284;28;20114;-56
2022/01/08 03:39:40;;;;;;;10.00;2.97;;;;;;;;;;5145033;28;20054;-57
2022/01/08 03:42:06;;;;;;;8.75;3.17;;;;;;;;;;5145509;28;20035;-58
2022/01/08 03:44:32;;;;;;;10.70;3.13;;;;;;;;;;5145192;28;20047;-57
2022/01/08 03:47:21;;;;;;;9.02;3.05;;;;;;;;;;5145124;28;20152;-57
2022/01/08 03:49:45;;;;;;;7.03;2.40;;;;;;;;;;5124662;28;20419;-58
2022/01/08 03:52:12;;;;;;;13.88;3.10;;;;;;;;;;5124022;28;20269;-58
2022/01/08 03:54:38;;;;;;;6.10;2.60;;;;;;;;;;5124450;28;20119;-57
2022/01/08 03:57:05;;;;;;;5.38;2.42;;;;;;;;;;5124891;28;20127;-57
2022/01/08 03:59:31;;;;;;;9.30;2.63;;;;;;;;;;5124601;28;20072;-57
2022/01/08 04:01:57;;;;;;;11.07;3.13;;;;;;;;;;5124210;28;20073;-56
2022/01/08 04:04:24;;;;;;;8.40;2.47;;;;;;;;;;5124485;28;20051;-57
2022/01/08 04:06:50;;;;;;;11.15;2.33;;;;;;;;;;5124037;28;20410;-57
2022/01/08 04:09:17;;;;;;;7.35;2.70;;;;;;;;;;5142566;28;20050;-57
2022/01/08 04:11:43;;;;;;;6.68;2.58;;;;;;;;;;5145220;28;20035;-57
2022/01/08 04:14:09;;;;;;;4.28;2.17;;;;;;;;;;5144891;27;20180;-57
2022/01/08 04:16:39;;;;;;;8.70;3.03;;;;;;;;;;5148714;27;20135;-58
2022/01/08 04:19:05;;;;;;;10.05;2.40;;;;;;;;;;5148499;27;20058;-56
2022/01/08 04:23:59;;;;;;;4.50;1.80;;;;;;;;;;5148338;27;20081;-57
2022/01/08 04:26:25;;;;;;;4.97;2.15;;;;;;;;;;5148656;27;20049;-56
2022/01/08 04:28:54;;;;;;;6.05;2.08;;;;;;;;;;5148753;27;20043;-57
2022/01/08 04:31:21;;;;;;;6.72;1.80;;;;;;;;;;5148447;27;20047;-57
2022/01/08 04:33:47;;;;;;;7.32;2.15;;;;;;;;;;5148488;27;20050;-57
2022/01/08 04:36:13;;;;;;;6.57;1.70;;;;;;;;;;5147897;27;20047;-57
2022/01/08 04:38:39;;;;;;;6.25;1.90;;;;;;;;;;5148462;27;20051;-57
2022/01/08 04:41:05;;;;;;;8.93;2.17;;;;;;;;;;5148785;27;20050;-57
2022/01/08 04:43:32;;;;;;;7.13;1.67;;;;;;;;;;5148376;27;20047;-57
2022/01/08 04:45:58;;;;;;;9.40;2.30;;;;;;;;;;5147978;27;20050;-57
2022/01/08 04:48:24;;;;;;;14.18;2.03;;;;;;;;;;5148428;27;20086;-57
2022/01/08 04:50:50;;;;;;;7.65;1.60;;;;;;;;;;5147573;27;20122;-58
2022/01/08 04:53:16;;;;;;;4.50;1.98;;;;;;;;;;5148194;27;20494;-58
2022/01/08 04:55:42;;;;;;;6.05;1.83;;;;;;;;;;5147606;27;20045;-57
2022/01/08 04:58:08;;;;;;;8.30;2.72;;;;;;;;;;5148221;27;20051;-58
2022/01/08 05:00:36;;;;;;;6.50;2.17;;;;;;;;;;5147917;27;20073;-58
2022/01/08 05:03:03;;;;;;;9.55;3.42;;;;;;;;;;5147996;27;20466;-58
2022/01/08 05:05:29;;;;;;;8.13;2.33;;;;;;;;;;5129129;27;20051;-58
2022/01/08 05:07:56;;;;;;;5.18;2.08;;;;;;;;;;5147558;27;20043;-57
2022/01/08 05:10:22;;;;;;;13.68;3.17;;;;;;;;;;5147501;27;20557;-57
2022/01/08 05:12:48;;;;;;;5.95;2.13;;;;;;;;;;5147686;27;20117;-57
2022/01/08 05:15:16;;;;;;;13.02;2.60;;;;;;;;;;5147588;27;20070;-56
2022/01/08 05:17:43;;;;;;;14.10;2.15;;;;;;;;;;5147406;27;20039;-57
2022/01/08 05:20:11;;;;;;;5.55;2.17;;;;;;;;;;5147259;27;20409;-58
2022/01/08 05:25:14;;;;;;;6.18;2.28;;;;;;;;;;5146637;27;20050;-57
2022/01/08 05:27:40;;;;;;;8.73;2.20;;;;;;;;;;5147436;27;20066;-58
2022/01/08 05:30:06;;;;;;;6.68;2.65;;;;;;;;;;5147499;27;20458;-57
2022/01/08 05:32:32;;;;;;;11.63;2.78;;;;;;;;;;5147537;27;20479;-57
2022/01/08 05:34:59;;;;;;;6.50;2.47;;;;;;;;;;5147418;27;20050;-59
2022/01/08 05:37:25;;;;;;;8.45;2.45;;;;;;;;;;5146386;27;20039;-57
2022/01/08 05:39:53;;;;;;;6.38;2.70;;;;;;;;;;5147207;27;20055;-57
2022/01/08 05:42:19;;;;;;;9.48;2.42;;;;;;;;;;5147169;27;20062;-56
2022/01/08 05:44:45;;;;;;;11.32;2.92;;;;;;;;;;5147169;27;20108;-58
2022/01/08 05:47:13;;;;;;;10.15;2.50;;;;;;;;;;5146651;27;20051;-57
2022/01/08 05:49:39;;;;;;;11.52;2.72;;;;;;;;;;5146974;27;20078;-57
2022/01/08 05:52:07;;;;;;;8.10;2.72;;;;;;;;;;5146436;27;20047;-57
2022/01/08 05:54:33;;;;;;;;;;;;;;;;;;5126647;28;20036;-58
2022/01/08 05:56:59;;;;;;;8.25;4.50;;;;;;;;;;5126545;27;19933;-56
2022/01/08 05:59:26;;;;;;;9.23;3.17;;;;;;;;;;5147176;27;20062;-55
2022/01/08 06:01:53;;;;;;;8.70;4.03;;;;;;;;;;5146692;27;20506;-59
2022/01/08 06:04:19;;;;;;;11.52;3.47;;;;;;;;;;5147241;27;20050;-57
2022/01/08 06:06:46;;;;;;;7.85;2.90;;;;;;;;;;5145788;27;20039;-57
2022/01/08 06:09:12;;;;;;;6.05;2.83;;;;;;;;;;5145375;27;20100;-57
2022/01/08 06:11:38;;;;;;;10.07;3.25;;;;;;;;;;5146596;27;20497;-58
2022/01/08 06:14:05;;;;;;;6.38;2.28;;;;;;;;;;5146896;27;20054;-57
2022/01/08 06:16:34;;;;;;;8.00;3.03;;;;;;;;;;5146398;27;20047;-57
2022/01/08 06:19:05;;;;;;;16.80;3.70;;;;;;;;;;5146456;27;20490;-58
2022/01/08 06:21:31;;;;;;;10.32;3.47;;;;;;;;;;5145313;27;20052;-56
2022/01/08 06:23:57;;;;;;;12.07;3.78;;;;;;;;;;5145887;27;20130;-57
2022/01/08 06:26:24;;;;;;;8.57;3.10;;;;;;;;;;5146289;27;20054;-58
2022/01/08 06:28:51;;;;;;;14.73;3.88;;;;;;;;;;5127458;27;20138;-56
2022/01/08 06:31:19;;;;;;;9.27;3.72;;;;;;;;;;5146454;27;20039;-58
2022/01/08 06:33:45;;;;;;;15.25;4.95;;;;;;;;;;5146690;27;20054;-57
2022/01/08 06:36:11;;;;;;;14.70;4.88;;;;;;;;;;5145672;27;20426;-57
2022/01/08 06:38:37;;;;;;;11.10;4.35;;;;;;;;;;5144534;27;20103;-56
2022/01/08 06:41:03;;;;;;;17.13;5.53;;;;;;;;;;5145958;27;20045;-57
2022/01/08 06:43:29;;;;;;;11.05;5.65;;;;;;;;;;5130501;27;20043;-57
2022/01/08 06:45:55;;;;;;;20.05;5.68;;;;;;;;;;5125829;28;20073;-57
2022/01/08 06:48:22;;;;;;;17.50;6.32;;;;;;;;;;5107340;28;20081;-57
2022/01/08 06:50:48;;;;;;;13.30;5.88;;;;;;;;;;5124779;28;20049;-58
2022/01/08 06:53:14;;;;;;;10.70;5.22;;;;;;;;;;5125408;28;20039;-56
2022/01/08 06:55:40;;;;;;;17.73;6.45;;;;;;;;;;5124705;28;20043;-57
2022/01/08 06:58:06;;;;;;;11.55;6.07;;;;;;;;;;5124275;27;20069;-57
2022/01/08 07:00:32;;;;;;;18.20;6.85;;;;;;;;;;5145730;27;20095;-57
2022/01/08 07:02:59;;;;;;;14.25;6.45;;;;;;;;;;5145838;27;20502;-57
2022/01/08 07:05:25;;;;;;;16.67;7.10;;;;;;;;;;5145186;27;20055;-58
2022/01/08 07:07:52;;;;;;;18.70;7.18;;;;;;;;;;5145240;27;20057;-57
2022/01/08 07:10:18;;;;;;;21.90;7.63;;;;;;;;;;5126445;27;20150;-57
2022/01/08 07:12:44;;;;;;;17.33;7.65;;;;;;;;;;5145672;27;20068;-57
2022/01/08 07:15:12;;;;;;;21.70;7.90;;;;;;;;;;5145889;27;20079;-57
2022/01/08 07:17:39;;;;;;;27.45;8.48;;;;;;;;;;5145124;27;20035;-57
2022/01/08 07:20:05;;;;;;;19.85;8.27;;;;;;;;;;5144767;27;20039;-57
2022/01/08 07:22:31;;;;;;;16.48;7.78;;;;;;;;;;5145627;27;20082;-57
2022/01/08 07:24:57;;;;;;;19.33;8.57;;;;;;;;;;5145036;27;20112;-58
2022/01/08 07:27:24;;;;;;;22.63;7.60;;;;;;;;;;5144925;27;20047;-58
2022/01/08 07:29:50;;;;;;;19.30;8.82;;;;;;;;;;5145739;28;20507;-57
2022/01/08 07:32:16;;;;;;;25.17;9.90;;;;;;;;;;5138378;28;20086;-56
2022/01/08 07:34:42;;;;;;;23.70;8.63;;;;;;;;;;5124723;28;20114;-57
2022/01/08 07:37:08;;;;;;;20.80;8.07;;;;;;;;;;5132425;28;20438;-55
2022/01/08 07:39:34;;;;;;;19.27;9.75;;;;;;;;;;5144958;28;20047;-57
2022/01/08 07:42:00;;;;;;;19.60;8.45;;;;;;;;;;5145640;28;20051;-56
2022/01/08 07:44:26;;;;;;;23.08;8.57;;;;;;;;;;5145339;28;20099;-57
2022/01/08 07:46:52;;;;;;;31.30;9.07;;;;;;;;;;5126316;28;20075;-57
2022/01/08 07:49:18;;;;;;;30.92;9.00;;;;;;;;;;5147099;27;20046;-57
2022/01/08 07:51:45;;;;;;;17.65;7.38;;;;;;;;;;5148725;27;20118;-57
2022/01/08 07:54:11;;;;;;;18.55;7.80;;;;;;;;;;5149332;27;20035;-58
2022/01/08 07:56:37;;;;;;;24.40;8.10;;;;;;;;;;5149522;27;20047;-57
2022/01/08 07:59:03;;;;;;;13.82;7.90;;;;;;;;;;5148733;27;20050;-56
2022/01/08 08:01:29;;;;;;;17.33;5.50;;;;;;;;;;5148982;27;20039;-57
2022/01/08 08:03:56;;;;;;;13.10;6.55;;;;;;;;;;5149171;27;20095;-55
2022/01/08 08:06:22;;;;;;;21.45;7.28;;;;;;;;;;5148550;27;20518;-56
2022/01/08 08:08:48;;;;;;;18.13;7.40;;;;;;;;;;5148592;27;20047;-58
2022/01/08 08:11:14;;;;;;;19.17;6.93;;;;;;;;;;5149043;27;20547;-58
2022/01/08 08:13:40;;;;;;;22.65;6.85;;;;;;;;;;5149090;27;20091;-58
2022/01/08 08:16:07;;;;;;;14.52;6.47;;;;;;;;;;5148888;27;20039;-58
2022/01/08 08:18:33;;;;;;;14.43;5.80;;;;;;;;;;5148503;27;20051;-57
2022/01/08 08:20:59;;;;;;;20.20;5.95;;;;;;;;;;5128145;27;20120;-58
2022/01/08 08:23:26;;;;;;;22.50;6.38;;;;;;;;;;5141827;27;20546;-59
2022/01/08 08:25:52;;;;;;;19.10;6.47;;;;;;;;;;5143159;27;20062;-57
2022/01/08 08:28:18;;;;;;;18.38;5.97;;;;;;;;;;5145270;27;20514;-57
2022/01/08 08:30:44;;;;;;;14.07;5.88;;;;;;;;;;5148333;27;20035;-58
2022/01/08 08:33:10;;;;;;;17.48;6.30;;;;;;;;;;5128046;28;20134;-57
2022/01/08 08:35:36;;;;;;;17.20;5.50;;;;;;;;;;5127542;28;20520;-57
2022/01/08 08:38:02;;;;;;;12.63;5.90;;;;;;;;;;5139137;27;20043;-59
2022/01/08 08:40:28;;;;;;;12.50;6.18;;;;;;;;;;5148084;27;20104;-58
2022/01/08 08:42:55;;;;;;;22.33;5.95;;;;;;;;;;5148441;27;20414;-59
2022/01/08 08:45:21;;;;;;;11.00;5.57;;;;;;;;;;5127495;28;20075;-59
2022/01/08 08:47:47;;;;;;;14.20;5.45;;;;;;;;;;5145373;27;20046;-58
2022/01/08 08:50:14;;;;;;;14.18;5.50;;;;;;;;;;5148192;27;20047;-58
2022/01/08 08:52:41;;;;;;;18.60;5.90;;;;;;;;;;5148816;27;20039;-60
2022/01/08 08:55:07;;;;;;;10.60;4.78;;;;;;;;;;5148141;27;20144;-58
2022/01/08 08:57:33;;;;;;;12.85;4.80;;;;;;;;;;5128711;27;20047;-58
2022/01/08 08:59:59;;;;;;;13.27;4.90;;;;;;;;;;5128178;27;20054;-58
2022/01/08 09:02:26;;;;;;;11.35;3.95;;;;;;;;;;5137193;27;20039;-58
2022/01/08 09:04:52;;;;;;;12.57;5.45;;;;;;;;;;5147763;27;20072;-59
2022/01/08 09:07:18;;;;;;;14.90;4.72;;;;;;;;;;5145470;27;20039;-58
2022/01/08 09:09:44;;;;;;;14.82;4.65;;;;;;;;;;5143659;27;20069;-59
2022/01/08 09:12:15;;;;;;;12.82;5.30;;;;;;;;;;5142377;27;20486;-58
2022/01/08 09:14:41;;;;;;;16.52;5.43;;;;;;;;;;5142223;27;20051;-58
2022/01/08 09:17:08;;;;;;;14.27;5.35;;;;;;;;;;5123780;28;20063;-58
2022/01/08 09:19:34;;;;;;;16.20;5.05;;;;;;;;;;5139778;27;20096;-58
2022/01/08 09:22:04;;;;;;;17.58;5.32;;;;;;;;;;5144829;27;20487;-58
2022/01/08 09:24:31;;;;;;;10.07;4.40;;;;;;;;;;5145939;27;20051;-58
2022/01/08 09:26:58;;;;;;;13.60;5.93;;;;;;;;;;5139481;27;20047;-58
2022/01/08 09:29:25;;;;;;;17.45;5.53;;;;;;;;;;5143854;27;20092;-58
2022/01/08 09:31:51;;;;;;;15.35;5.30;;;;;;;;;;5144414;27;20047;-58
2022/01/08 09:34:19;;;;;;;12.50;4.15;;;;;;;;;;5144957;27;20515;-58
2022/01/08 09:36:45;;;;;;;14.13;5.03;;;;;;;;;;5140476;27;20043;-60
2022/01/08 09:39:11;;;;;;;16.85;4.78;;;;;;;;;;5143634;27;20502;-64
2022/01/08 09:41:38;;;;;;;13.07;4.35;;;;;;;;;;5144515;27;20043;-62
2022/01/08 09:44:04;;;;;;;22.38;5.13;;;;;;;;;;5127393;27;20051;-62
2022/01/08 09:46:30;;;;;;;19.38;4.95;;;;;;;;;;5145510;27;20133;-61
2022/01/08 09:48:56;;;;;;;8.98;4.45;;;;;;;;;;5145592;27;20091;-61
2022/01/08 09:51:22;;;;;;;12.35;4.07;;;;;;;;;;5141604;27;20064;-62
2022/01/08 09:53:49;;;;;;;11.27;4.10;;;;;;;;;;5146258;27;20051;-63
2022/01/08 09:56:15;;;;;;;15.88;3.97;;;;;;;;;;5140214;27;20047;-62
2022/01/08 09:58:41;;;;;;;9.82;4.72;;;;;;;;;;5141841;27;20047;-61
2022/01/08 10:01:27;;;;;;;16.63;4.32;;;;;;;;;;5144626;27;20681;-61
2022/01/08 10:03:54;;;;;;;6.50;3.13;;;;;;;;;;5119076;27;20390;-61
2022/01/08 10:06:24;;;;;;;10.43;3.65;;;;;;;;;;5144477;27;20092;-63
2022/01/08 10:08:50;;;;;;;11.00;3.30;;;;;;;;;;5145432;27;20085;-62
2022/01/08 10:11:17;;;;;;;13.10;3.67;;;;;;;;;;5143544;27;20042;-61
2022/01/08 10:13:43;;;;;;;11.23;3.45;;;;;;;;;;5134598;27;20042;-62
2022/01/08 10:18:58;;;;;;;13.40;3.65;;;;;;;;;;5119374;27;20058;-60
2022/01/08 10:21:29;;;;;;;14.02;3.88;;;;;;;;;;5142431;27;20043;-61
2022/01/08 10:24:00;;;;;;;12.70;3.17;;;;;;;;;;5139893;27;20042;-61
2022/01/08 10:26:33;;;;;;;7.32;2.90;;;;;;;;;;5132240;27;20119;-61
2022/01/08 10:29:00;;;;;;;7.93;3.20;;;;;;;;;;5133354;27;20051;-61
2022/01/08 10:31:31;;;;;;;9.15;3.33;;;;;;;;;;5137639;27;20513;-61
2022/01/08 10:34:12;;;;;;;10.43;3.55;;;;;;;;;;5180863;27;20452;-69
2022/01/08 10:36:40;;;;;;;13.88;3.75;;;;;;;;;;5172577;27;20051;-68
2022/01/08 10:39:09;;;;;;;14.15;3.05;;;;;;;;;;5168529;27;20095;-68
2022/01/08 10:41:39;;;;;;;8.93;3.22;;;;;;;;;;5174624;27;20046;-68
2022/01/08 10:44:07;;;;;;;17.83;3.60;;;;;;;;;;5170979;27;20504;-69
2022/01/08 10:46:33;;;;;;;;;;;;;;;;;;5171348;27;20493;-69
2022/01/08 10:48:59;;;;;;;10.55;3.50;;;;;;;;;;5165287;27;19927;-65
2022/01/08 10:51:26;;;;;;;15.38;4.20;;;;;;;;;;5164480;27;20046;-66
2022/01/08 10:54:01;;;;;;;13.03;3.77;;;;;;;;;;5162152;27;20050;-65
2022/01/08 10:56:27;;;;;;;12.52;4.07;;;;;;;;;;5162610;27;20039;-65
2022/01/08 10:58:57;;;;;;;10.43;3.70;;;;;;;;;;5151415;27;20050;-65
2022/01/08 11:01:42;;;;;;;17.63;4.65;;;;;;;;;;5164300;27;20046;-65
2022/01/08 11:04:09;;;;;;;23.38;7.32;;;;;;;;;;5154009;27;20050;-68
2022/01/08 11:06:51;;;;;;;11.98;4.55;;;;;;;;;;5157097;27;20357;-68
2022/01/08 11:09:17;;;;;;;12.80;4.75;;;;;;;;;;5162937;27;20096;-69
2022/01/08 11:11:44;;;;;;;17.42;5.28;;;;;;;;;;5165846;27;20049;-66
2022/01/08 11:14:21;;;;;;;12.57;6.00;;;;;;;;;;5163598;27;20061;-67
2022/01/08 11:16:47;;;;;;;11.70;4.95;;;;;;;;;;5180126;27;20046;-68
2022/01/08 11:19:13;;;;;;;12.88;5.22;;;;;;;;;;5170494;27;20126;-66
2022/01/08 11:21:40;;;;;;;14.85;5.55;;;;;;;;;;5160659;27;20066;-69
2022/01/08 11:24:06;;;;;;;12.05;5.20;;;;;;;;;;5165773;27;20098;-66
2022/01/08 11:26:32;;;;;;;15.57;5.03;;;;;;;;;;5176289;27;20043;-68
2022/01/08 11:29:00;;;;;;;11.27;4.78;;;;;;;;;;5165047;27;20035;-67
2022/01/08 11:31:29;;;;;;;12.00;5.03;;;;;;;;;;5174239;27;20079;-68
2022/01/08 11:34:01;;;;;;;13.77;5.40;;;;;;;;;;5144967;27;20137;-69
2022/01/08 11:36:28;;;;;;;15.25;6.28;;;;;;;;;;5162526;27;20529;-69
2022/01/08 11:38:56;;;;;;;17.38;5.35;;;;;;;;;;5165942;27;20086;-67
2022/01/08 11:41:22;;;;;;;;;;;;;;;;;;5169030;27;20046;-66
2022/01/08 11:43:50;;;;;;;13.23;4.88;;;;;;;;;;5162921;27;19920;-66
2022/01/08 11:46:16;;;;;;;;;;;;;;;;;;5156590;27;20039;-66
2022/01/08 11:48:44;;;;;;;13.40;5.68;;;;;;;;;;5158504;27;19925;-67
2022/01/08 11:51:10;;;;;;;;;;;;;;;;;;5148736;27;20106;-67
2022/01/08 11:53:47;;;;;;;13.77;6.05;;;;;;;;;;5147548;27;19955;-69
2022/01/08 11:56:25;;;;;;;19.63;6.43;;;;;;;;;;5153621;27;20086;-69
2022/01/08 11:59:03;;;;;;;14.15;5.68;;;;;;;;;;5139111;27;20070;-70
2022/01/08 12:01:29;;;;;;;12.98;5.63;;;;;;;;;;5145102;27;20157;-70
2022/01/08 12:03:55;;;;;;;11.95;5.85;;;;;;;;;;5147323;27;20094;-70
2022/01/08 12:06:22;;;;;;;8.90;5.43;;;;;;;;;;5144972;27;20106;-72
2022/01/08 12:09:07;;;;;;;13.07;5.85;;;;;;;;;;5138209;27;20043;-69
2022/01/08 12:11:54;;;;;;;16.30;6.72;;;;;;;;;;5145373;27;20047;-72
2022/01/08 12:14:21;;;;;;;12.70;6.07;;;;;;;;;;5135189;27;20113;-72
2022/01/08 12:16:51;;;;;;;14.23;6.93;;;;;;;;;;5149205;27;20050;-71
2022/01/08 12:19:30;;;;;;;14.80;6.82;;;;;;;;;;5145172;27;20051;-71
2022/01/08 12:21:56;;;;;;;13.70;6.45;;;;;;;;;;5148902;27;20172;-67
2022/01/08 12:24:28;;;;;;;15.20;7.30;;;;;;;;;;5148309;27;20035;-70
2022/01/08 12:26:58;;;;;;;17.98;6.75;;;;;;;;;;5141665;27;20063;-69
2022/01/08 12:29:35;;;;;;;14.00;6.85;;;;;;;;;;5131590;27;20127;-69
2022/01/08 12:32:19;;;;;;;13.55;7.10;;;;;;;;;;5142839;27;20054;-75
2022/01/08 12:34:51;;;;;;;14.23;6.93;;;;;;;;;;5150866;27;20047;-68
2022/01/08 12:37:18;;;;;;;11.73;6.40;;;;;;;;;;5147401;27;20083;-69
2022/01/08 12:39:49;;;;;;;18.23;7.75;;;;;;;;;;5128248;27;20043;-69
2022/01/08 12:42:28;;;;;;;15.63;6.85;;;;;;;;;;5145845;27;20039;-68
2022/01/08 12:45:07;;;;;;;17.23;8.38;;;;;;;;;;5144350;27;20152;-70
2022/01/08 12:47:39;;;;;;;26.17;7.65;;;;;;;;;;5145672;27;20517;-67
2022/01/08 12:50:32;;;;;;;14.52;8.02;;;;;;;;;;5139745;27;20039;-69
2022/01/08 12:53:04;;;;;;;15.07;8.88;;;;;;;;;;5155816;27;20047;-70
2022/01/08 12:55:34;;;;;;;18.08;9.27;;;;;;;;;;5149846;27;20039;-70
2022/01/08 12:58:00;;;;;;;20.00;9.15;;;;;;;;;;5133470;27;20479;-71
2022/01/08 13:00:27;;;;;;;22.52;9.55;;;;;;;;;;5158997;27;20099;-68
2022/01/08 13:02:53;;;;;;;15.30;8.52;;;;;;;;;;5133317;27;20073;-66
2022/01/08 13:05:19;;;;;;;16.05;9.82;;;;;;;;;;5138481;27;20042;-66
2022/01/08 13:07:49;;;;;;;19.52;9.77;;;;;;;;;;5140963;27;20076;-66
2022/01/08 13:10:18;;;;;;;21.15;11.05;;;;;;;;;;5158353;27;20041;-66
2022/01/08 13:12:44;;;;;;;18.50;11.18;;;;;;;;;;5147729;27;20039;-66
2022/01/08 13:15:11;;;;;;;14.73;10.57;;;;;;;;;;5146527;27;20126;-66
2022/01/08 13:17:37;;;;;;;17.88;10.65;;;;;;;;;;5146925;27;20096;-66
2022/01/08 13:20:07;;;;;;;21.25;11.65;;;;;;;;;;5146209;27;20035;-66
2022/01/08 13:22:34;;;;;;;21.35;12.43;;;;;;;;;;5145507;27;20058;-66
2022/01/08 13:25:00;;;;;;;20.63;12.05;;;;;;;;;;5146218;27;20047;-66
2022/01/08 13:27:27;;;;;;;17.75;12.88;;;;;;;;;;5146603;27;20039;-66
2022/01/08 13:29:55;;;;;;;14.23;10.98;;;;;;;;;;5145603;27;20138;-66
2022/01/08 13:32:22;;;;;;;16.73;11.43;;;;;;;;;;5146272;27;20051;-67
2022/01/08 13:34:49;;;;;;;21.70;12.07;;;;;;;;;;5146552;27;20475;-67
2022/01/08 13:37:26;;;;;;;18.58;11.93;;;;;;;;;;5145417;27;20156;-67
2022/01/08 13:39:55;;;;;;;23.45;11.30;;;;;;;;;;5152767;27;20390;-66
2022/01/08 13:42:21;;;;;;;17.58;10.68;;;;;;;;;;5144758;27;20050;-66
2022/01/08 13:44:58;;;;;;;21.83;11.63;;;;;;;;;;5160459;27;20311;-68
2022/01/08 13:47:38;;;;;;;17.17;11.52;;;;;;;;;;5162569;27;20078;-67
2022/01/08 13:50:08;;;;;;;12.95;9.73;;;;;;;;;;5137212;27;20514;-66
2022/01/08 13:52:40;;;;;;;18.42;11.20;;;;;;;;;;5136410;27;20046;-67
2022/01/08 13:55:10;;;;;;;18.05;11.77;;;;;;;;;;5139958;27;20046;-67
2022/01/08 13:57:36;;;;;;;16.48;11.38;;;;;;;;;;5140930;27;20038;-67
2022/01/08 14:00:12;;;;;;;17.23;12.00;;;;;;;;;;5143491;27;20055;-67
2022/01/08 14:02:39;;;;;;;16.67;11.27;;;;;;;;;;5144837;27;20042;-68
2022/01/08 14:05:05;;;;;;;17.90;11.63;;;;;;;;;;5144643;27;20094;-67
2022/01/08 14:07:44;;;;;;;22.75;12.35;;;;;;;;;;5144522;27;20051;-68
2022/01/08 14:10:12;;;;;;;14.38;10.25;;;;;;;;;;5138234;27;20448;-66
2022/01/08 14:12:38;;;;;;;;;;;;;;;;;;5145105;27;20057;-66
2022/01/08 14:15:05;;;;;;;21.58;12.43;;;;;;;;;;5144468;27;19919;-67
2022/01/08 14:17:35;;;;;;;21.50;11.48;;;;;;;;;;5144686;27;20039;-67
2022/01/08 14:20:03;;;;;;;19.95;11.63;;;;;;;;;;5143411;27;20054;-67
2022/01/08 14:22:30;;;;;;;24.92;12.82;;;;;;;;;;5143831;27;20117;-67
2022/01/08 14:24:56;;;;;;;17.45;11.85;;;;;;;;;;5146949;27;20442;-69
2022/01/08 14:27:24;;;;;;;20.33;13.00;;;;;;;;;;5143244;27;20577;-69
2022/01/08 14:30:04;;;;;;;18.50;11.48;;;;;;;;;;5145375;27;20114;-71
2022/01/08 14:32:30;;;;;;;21.30;13.43;;;;;;;;;;5131089;27;20114;-70
2022/01/08 14:34:57;;;;;;;22.10;13.10;;;;;;;;;;5137123;28;20055;-71
2022/01/08 14:37:33;;;;;;;16.60;12.30;;;;;;;;;;5143750;27;20072;-70
2022/01/08 14:40:18;;;;;;;15.40;11.00;;;;;;;;;;5145290;28;20054;-70
2022/01/08 14:42:44;;;;;;;24.67;12.93;;;;;;;;;;5144039;27;20039;-70
2022/01/08 14:45:16;;;;;;;19.85;10.73;;;;;;;;;;5142280;27;20063;-70
2022/01/08 14:47:43;;;;;;;17.67;10.30;;;;;;;;;;5142682;27;20044;-70
2022/01/08 14:50:13;;;;;;;17.15;10.40;;;;;;;;;;5123208;28;20107;-70
2022/01/08 14:52:40;;;;;;;16.30;10.68;;;;;;;;;;5134500;27;20035;-70
2022/01/08 14:55:07;;;;;;;20.25;12.15;;;;;;;;;;5125462;27;20133;-70
2022/01/08 14:57:33;;;;;;;18.65;11.57;;;;;;;;;;5127710;27;20503;-70
2022/01/08 15:00:00;;;;;;;17.35;9.15;;;;;;;;;;5132128;28;20083;-69